Time;durP1;ratioP1;P1;durP2;ratioP2;P2;SDS_P1;SDS_P2;PMS_P1;PMS_P2;Temp;Humidity;BMP_temperature;BMP_pressure;BME280_temperature;BME280_humidity;BME280_pressure;Samples;Min_cycle;Max_cycle;Signal;HPM_P1;HPM_P2
2023/03/25 00:00:59;;;;;;;6.53;0.52;;;10.60;99.90;;;;;;4773202;30;20040;-79
2023/03/25 00:03:27;;;;;;;3.80;0.50;;;10.70;99.90;;;;;;4789033;30;20042;-77
2023/03/25 00:05:54;;;;;;;7.05;0.68;;;10.70;99.90;;;;;;4788986;30;20031;-79
2023/03/25 00:08:21;;;;;;;4.93;0.80;;;10.70;99.90;;;;;;4789001;30;20031;-78
2023/03/25 00:10:52;;;;;;;7.07;0.50;;;10.70;99.90;;;;;;4787181;30;20397;-78
2023/03/25 00:13:18;;;;;;;8.57;1.13;;;10.70;99.90;;;;;;4787377;30;20039;-79
2023/03/25 00:15:44;;;;;;;3.90;0.60;;;10.70;99.90;;;;;;4758109;30;20092;-79
2023/03/25 00:18:11;;;;;;;5.18;0.55;;;10.60;99.90;;;;;;4773081;30;20039;-79
2023/03/25 00:20:39;;;;;;;6.60;1.00;;;10.70;99.90;;;;;;4772703;30;20035;-79
2023/03/25 00:23:08;;;;;;;7.40;0.60;;;10.60;99.90;;;;;;4787762;30;20027;-79
2023/03/25 00:25:34;;;;;;;10.55;0.82;;;10.60;99.90;;;;;;4772281;30;20168;-78
2023/03/25 00:28:00;;;;;;;7.05;0.68;;;10.60;99.90;;;;;;4787665;30;20096;-78
2023/03/25 00:30:26;;;;;;;8.63;1.33;;;10.60;99.90;;;;;;4772611;30;20517;-78
2023/03/25 00:32:51;;;;;;;7.90;0.90;;;10.70;99.90;;;;;;4786935;30;20046;-78
2023/03/25 00:35:18;;;;;;;7.40;0.50;;;10.60;99.90;;;;;;4772110;30;20504;-78
2023/03/25 00:37:46;;;;;;;7.78;0.75;;;10.60;99.90;;;;;;4771939;30;20035;-78
2023/03/25 00:40:13;;;;;;;6.65;0.77;;;10.60;99.90;;;;;;4772580;30;20138;-78
2023/03/25 00:42:43;;;;;;;4.78;0.77;;;10.70;99.90;;;;;;4771906;30;20043;-78
2023/03/25 00:45:13;;;;;;;11.23;1.42;;;10.70;99.90;;;;;;4787201;30;20096;-79
2023/03/25 00:47:38;;;;;;;8.48;0.88;;;10.60;99.90;;;;;;4758091;30;20039;-79
2023/03/25 00:50:05;;;;;;;5.70;0.80;;;10.60;99.90;;;;;;4757079;30;20052;-78
2023/03/25 00:52:31;;;;;;;6.88;0.77;;;10.60;99.90;;;;;;4771864;30;20150;-77
2023/03/25 00:54:56;;;;;;;7.30;0.90;;;10.60;99.90;;;;;;4772077;30;20131;-78
2023/03/25 00:57:22;;;;;;;8.05;0.95;;;10.60;99.90;;;;;;4771771;30;20122;-78
2023/03/25 00:59:48;;;;;;;6.82;1.05;;;10.60;99.90;;;;;;4771872;30;20372;-78
2023/03/25 01:02:15;;;;;;;8.18;0.93;;;10.60;99.90;;;;;;4771677;30;20050;-78
2023/03/25 01:04:44;;;;;;;6.40;0.93;;;10.60;99.90;;;;;;4773600;30;20062;-78
2023/03/25 01:07:10;;;;;;;7.97;0.90;;;10.60;99.90;;;;;;4790331;30;20127;-79
2023/03/25 01:09:37;;;;;;;7.90;1.20;;;10.60;99.90;;;;;;4790047;30;20062;-77
2023/03/25 01:12:03;;;;;;;7.78;1.08;;;10.60;99.90;;;;;;4790184;30;20039;-78
2023/03/25 01:14:29;;;;;;;7.47;1.02;;;10.60;99.90;;;;;;4775992;30;20057;-78
2023/03/25 01:16:57;;;;;;;7.47;1.00;;;10.70;99.90;;;;;;4775429;30;20465;-78
2023/03/25 01:19:23;;;;;;;12.38;1.55;;;10.60;99.90;;;;;;4790124;30;20031;-78
2023/03/25 01:21:49;;;;;;;8.65;0.90;;;10.60;99.90;;;;;;4774890;30;20042;-78
2023/03/25 01:24:14;;;;;;;6.97;1.17;;;10.60;99.90;;;;;;4790043;30;20139;-78
2023/03/25 01:26:42;;;;;;;8.63;1.02;;;10.60;99.90;;;;;;4775233;30;20496;-78
2023/03/25 01:29:09;;;;;;;7.60;1.05;;;10.60;99.90;;;;;;4775365;30;20031;-78
2023/03/25 01:31:34;;;;;;;11.98;1.15;;;10.60;99.90;;;;;;4790268;30;20035;-78
2023/03/25 01:34:00;;;;;;;9.77;1.48;;;10.60;99.90;;;;;;4790604;30;20041;-78
2023/03/25 01:36:29;;;;;;;9.68;1.27;;;10.50;99.90;;;;;;4775117;30;20091;-78
2023/03/25 01:38:57;;;;;;;7.47;0.90;;;10.60;99.90;;;;;;4791240;30;20059;-78
2023/03/25 01:41:24;;;;;;;7.95;0.68;;;10.60;99.90;;;;;;4775288;30;20035;-78
2023/03/25 01:44:29;;;;;;;13.50;1.55;;;10.60;99.90;;;;;;4789679;30;20046;-78
2023/03/25 01:46:58;;;;;;;8.07;0.90;;;10.70;99.90;;;;;;4790914;30;20041;-79
2023/03/25 01:49:30;;;;;;;8.98;1.30;;;10.60;99.90;;;;;;4789654;30;20042;-78
2023/03/25 01:52:01;;;;;;;10.38;1.55;;;10.60;99.90;;;;;;4790004;30;20042;-78
2023/03/25 01:54:27;;;;;;;15.48;1.73;;;10.60;99.90;;;;;;4790095;30;20043;-77
2023/03/25 01:56:53;;;;;;;10.50;1.30;;;10.60;99.90;;;;;;4789630;30;20031;-78
2023/03/25 01:59:23;;;;;;;11.43;0.98;;;10.50;99.90;;;;;;4789555;30;20035;-78
2023/03/25 02:01:50;;;;;;;10.25;1.10;;;10.50;99.90;;;;;;4789858;30;20069;-77
2023/03/25 02:04:26;;;;;;;5.88;1.00;;;10.60;99.90;;;;;;4774974;30;20032;-77
2023/03/25 02:06:53;;;;;;;9.52;1.17;;;10.60;99.90;;;;;;4789834;30;20035;-78
2023/03/25 02:09:23;;;;;;;12.07;1.38;;;10.50;99.90;;;;;;4789753;30;20039;-77
2023/03/25 02:11:49;;;;;;;10.43;1.05;;;10.50;99.90;;;;;;4789379;30;20067;-77
2023/03/25 02:14:22;;;;;;;12.02;0.90;;;10.50;99.90;;;;;;4790284;30;20477;-77
2023/03/25 02:16:51;;;;;;;7.90;0.77;;;10.50;99.90;;;;;;4789212;29;20038;-77
2023/03/25 02:19:44;;;;;;;9.07;1.05;;;10.50;99.90;;;;;;4774066;30;20027;-77
2023/03/25 02:22:24;;;;;;;8.82;0.85;;;10.40;99.90;;;;;;4789828;30;20038;-77
2023/03/25 02:25:25;;;;;;;8.82;1.00;;;10.40;99.90;;;;;;4789808;30;20051;-78
2023/03/25 02:27:51;;;;;;;9.48;1.10;;;10.30;99.90;;;;;;4743623;30;20043;-77
2023/03/25 02:30:28;;;;;;;12.48;1.50;;;10.30;99.90;;;;;;4774416;30;20039;-77
2023/03/25 02:33:21;;;;;;;8.35;1.10;;;10.30;99.90;;;;;;4774493;30;20089;-77
2023/03/25 02:36:09;;;;;;;5.13;0.75;;;10.30;99.90;;;;;;4774062;30;20031;-77
2023/03/25 02:38:43;;;;;;;5.03;1.02;;;10.30;99.90;;;;;;4790399;30;20052;-77
2023/03/25 02:41:25;;;;;;;7.07;0.90;;;10.20;99.90;;;;;;4774676;30;20040;-76
2023/03/25 02:44:04;;;;;;;6.00;1.30;;;10.20;99.90;;;;;;4773768;30;20023;-77
2023/03/25 02:46:31;;;;;;;10.30;2.22;;;10.10;99.90;;;;;;4788991;30;20063;-76
2023/03/25 02:49:06;;;;;;;3.97;0.95;;;10.10;99.90;;;;;;4789434;30;20035;-76
2023/03/25 02:51:37;;;;;;;7.57;1.17;;;10.10;99.90;;;;;;4773651;30;20031;-77
2023/03/25 02:54:10;;;;;;;9.05;1.33;;;10.00;99.90;;;;;;4788581;30;20035;-77
2023/03/25 02:56:38;;;;;;;7.70;1.42;;;9.90;99.90;;;;;;4789925;30;20051;-76
2023/03/25 02:59:05;;;;;;;5.00;0.93;;;9.90;99.90;;;;;;4788517;30;20164;-76
2023/03/25 03:01:33;;;;;;;6.40;1.67;;;9.90;99.90;;;;;;4773463;30;20156;-76
2023/03/25 03:03:59;;;;;;;5.47;1.00;;;9.90;99.90;;;;;;4788842;30;20046;-76
2023/03/25 03:06:26;;;;;;;8.27;1.10;;;9.90;99.90;;;;;;4789108;30;20039;-76
2023/03/25 03:08:58;;;;;;;7.75;1.17;;;9.90;99.90;;;;;;4773452;30;20388;-77
2023/03/25 03:12:05;;;;;;;7.15;1.02;;;9.90;99.90;;;;;;4773614;30;20045;-77
2023/03/25 03:14:34;;;;;;;8.82;1.40;;;9.90;99.90;;;;;;4772920;30;20043;-77
2023/03/25 03:17:16;;;;;;;7.63;1.50;;;9.80;99.90;;;;;;4773756;30;20416;-76
2023/03/25 03:19:54;;;;;;;8.90;1.30;;;9.80;99.90;;;;;;4789550;30;20034;-76
2023/03/25 03:22:40;;;;;;;6.53;1.27;;;9.80;99.90;;;;;;4788416;30;20118;-75
2023/03/25 03:25:29;;;;;;;6.03;0.98;;;9.80;99.90;;;;;;4789185;30;20039;-75
2023/03/25 03:28:24;;;;;;;7.38;1.10;;;9.70;99.90;;;;;;4789380;29;20100;-75
2023/03/25 03:31:14;;;;;;;6.18;1.50;;;9.70;99.90;;;;;;4770683;30;20039;-75
2023/03/25 03:33:52;;;;;;;8.30;1.75;;;9.70;99.90;;;;;;4788945;30;20401;-76
2023/03/25 03:36:26;;;;;;;7.57;1.88;;;9.70;99.90;;;;;;4789861;30;20473;-76
2023/03/25 03:39:00;;;;;;;6.95;1.30;;;9.60;99.90;;;;;;4789111;30;20047;-75
2023/03/25 03:41:28;;;;;;;11.18;1.75;;;9.60;99.90;;;;;;4789100;30;20457;-75
2023/03/25 03:43:57;;;;;;;5.72;1.52;;;9.60;99.90;;;;;;4788164;30;20075;-76
2023/03/25 03:46:28;;;;;;;6.28;1.55;;;9.60;99.90;;;;;;4787505;30;20088;-75
2023/03/25 03:48:57;;;;;;;9.95;1.63;;;9.60;99.90;;;;;;4787687;30;20047;-75
2023/03/25 03:51:31;;;;;;;10.85;1.35;;;9.60;99.90;;;;;;4787354;30;20032;-76
2023/03/25 03:54:03;;;;;;;6.60;1.67;;;9.60;99.90;;;;;;4787719;30;20036;-76
2023/03/25 03:56:45;;;;;;;9.80;1.77;;;9.60;99.90;;;;;;4788678;30;20027;-76
2023/03/25 03:59:19;;;;;;;8.68;1.55;;;9.50;99.90;;;;;;4787442;30;20042;-76
2023/03/25 04:01:52;;;;;;;5.90;1.75;;;9.50;99.90;;;;;;4788485;30;20035;-76
2023/03/25 04:04:33;;;;;;;6.28;1.20;;;9.60;99.90;;;;;;4788111;30;20364;-76
2023/03/25 04:07:09;;;;;;;9.10;1.48;;;9.60;99.90;;;;;;4787754;30;20036;-77
2023/03/25 04:10:13;;;;;;;9.48;1.48;;;9.70;99.90;;;;;;4788285;30;20035;-78
2023/03/25 04:12:41;;;;;;;;;;;9.70;99.90;;;;;;4787746;30;20181;-77
2023/03/25 04:15:07;;;;;;;7.80;1.30;;;9.70;99.90;;;;;;4787922;30;19961;-77
2023/03/25 04:17:33;;;;;;;9.63;1.60;;;9.70;99.90;;;;;;4788416;30;20045;-77
2023/03/25 04:20:00;;;;;;;9.52;1.38;;;9.70;99.90;;;;;;4787304;30;20126;-78
2023/03/25 04:22:26;;;;;;;12.30;1.83;;;9.70;99.90;;;;;;4772475;30;20035;-77
2023/03/25 04:24:53;;;;;;;14.63;2.65;;;9.80;99.90;;;;;;4772622;30;20089;-78
2023/03/25 04:27:21;;;;;;;8.13;1.63;;;9.70;99.90;;;;;;4787341;30;20548;-77
2023/03/25 04:29:48;;;;;;;8.13;1.70;;;9.70;99.90;;;;;;4788385;30;20092;-77
2023/03/25 04:32:14;;;;;;;13.90;2.10;;;9.70;99.90;;;;;;4772196;30;20047;-77
2023/03/25 04:34:40;;;;;;;9.73;1.77;;;9.70;99.90;;;;;;4772576;30;20043;-78
2023/03/25 04:37:06;;;;;;;8.82;1.90;;;9.60;99.90;;;;;;4788076;30;20110;-77
2023/03/25 04:39:32;;;;;;;13.43;1.83;;;9.70;99.90;;;;;;4785739;30;20572;-78
2023/03/25 04:42:02;;;;;;;10.23;1.58;;;9.70;99.90;;;;;;4772031;30;20092;-78
2023/03/25 04:44:37;;;;;;;10.60;1.67;;;9.70;99.90;;;;;;4787142;30;20438;-78
2023/03/25 04:47:06;;;;;;;14.23;2.05;;;9.70;99.90;;;;;;4787944;30;20458;-78
2023/03/25 04:49:31;;;;;;;11.80;2.05;;;9.70;99.90;;;;;;4786727;30;20027;-79
2023/03/25 04:51:58;;;;;;;12.38;1.98;;;9.60;99.90;;;;;;4786752;30;20426;-78
2023/03/25 04:54:23;;;;;;;12.75;1.90;;;9.60;99.90;;;;;;4771927;30;20051;-78
2023/03/25 04:56:50;;;;;;;15.48;2.10;;;9.60;99.90;;;;;;4771484;30;20040;-78
2023/03/25 04:59:17;;;;;;;10.55;1.48;;;9.70;99.90;;;;;;4787904;30;20127;-77
2023/03/25 05:01:44;;;;;;;12.93;1.90;;;9.60;99.90;;;;;;4771565;30;20130;-77
2023/03/25 05:04:12;;;;;;;13.52;1.80;;;9.70;99.90;;;;;;4771762;30;20039;-77
2023/03/25 05:06:41;;;;;;;13.43;2.03;;;9.70;99.90;;;;;;4772070;30;20039;-77
2023/03/25 05:09:14;;;;;;;16.15;1.90;;;9.70;99.90;;;;;;4786951;30;20095;-78
2023/03/25 05:11:40;;;;;;;;;;;9.70;99.90;;;;;;4787325;30;20096;-78
2023/03/25 05:14:08;;;;;;;11.85;1.77;;;9.70;99.90;;;;;;4787002;30;20296;-78
2023/03/25 05:16:34;;;;;;;12.98;1.75;;;9.70;99.90;;;;;;4771565;30;20046;-78
2023/03/25 05:19:02;;;;;;;8.07;1.50;;;9.70;99.90;;;;;;4787792;30;20028;-77
2023/03/25 05:21:30;;;;;;;11.90;1.50;;;9.70;99.90;;;;;;4787804;30;20045;-78
2023/03/25 05:23:57;;;;;;;11.82;1.70;;;9.80;99.90;;;;;;4771964;30;20036;-78
2023/03/25 05:26:23;;;;;;;8.57;1.42;;;9.70;99.90;;;;;;4788005;30;20166;-78
2023/03/25 05:28:50;;;;;;;15.40;1.65;;;9.70;99.90;;;;;;4771967;30;20062;-78
2023/03/25 05:31:17;;;;;;;10.07;1.40;;;9.70;99.90;;;;;;4787630;30;20035;-78
2023/03/25 05:33:42;;;;;;;6.43;1.50;;;9.80;99.90;;;;;;4786381;30;20389;-78
2023/03/25 05:36:12;;;;;;;10.68;2.63;;;9.80;99.90;;;;;;4787649;30;20031;-78
2023/03/25 05:38:45;;;;;;;11.23;1.42;;;9.80;99.90;;;;;;4787377;30;20073;-77
2023/03/25 05:41:17;;;;;;;8.60;1.80;;;9.80;99.90;;;;;;4772694;30;20055;-77
2023/03/25 05:43:46;;;;;;;8.63;1.55;;;9.80;99.90;;;;;;4772119;30;20393;-77
2023/03/25 05:46:13;;;;;;;6.45;1.70;;;9.70;99.90;;;;;;4786269;30;20035;-77
2023/03/25 05:48:40;;;;;;;10.18;1.40;;;9.70;99.90;;;;;;4771929;30;20063;-78
2023/03/25 05:51:15;;;;;;;7.75;1.73;;;9.70;99.90;;;;;;4788269;29;20043;-77
2023/03/25 05:53:48;;;;;;;6.22;1.10;;;9.70;99.90;;;;;;4790093;30;20075;-78
2023/03/25 05:56:16;;;;;;;6.97;1.63;;;9.70;99.90;;;;;;4791418;30;20492;-77
2023/03/25 05:58:43;;;;;;;9.18;1.85;;;9.70;99.90;;;;;;4789658;30;20126;-77
2023/03/25 06:01:12;;;;;;;8.10;1.42;;;9.70;99.90;;;;;;4789544;30;20067;-78
2023/03/25 06:03:39;;;;;;;10.27;1.48;;;9.70;99.90;;;;;;4789542;30;20085;-78
2023/03/25 06:06:12;;;;;;;10.40;1.70;;;9.70;99.90;;;;;;4774570;30;20529;-77
2023/03/25 06:08:44;;;;;;;7.82;1.65;;;9.70;99.90;;;;;;4790943;30;20039;-77
2023/03/25 06:11:12;;;;;;;8.00;1.80;;;9.70;99.90;;;;;;4774672;30;20366;-77
2023/03/25 06:13:39;;;;;;;9.43;2.15;;;9.70;99.90;;;;;;4789301;30;20393;-78
2023/03/25 06:16:07;;;;;;;7.70;1.55;;;9.70;99.90;;;;;;4789284;30;20036;-77
2023/03/25 06:18:34;;;;;;;8.32;1.77;;;9.70;99.90;;;;;;4790561;30;20031;-78
2023/03/25 06:20:59;;;;;;;9.63;2.45;;;9.70;99.90;;;;;;4774521;30;20063;-77
2023/03/25 06:23:26;;;;;;;12.63;2.47;;;9.70;99.90;;;;;;4774337;30;20117;-77
2023/03/25 06:25:52;;;;;;;11.40;2.35;;;9.70;99.90;;;;;;4789153;30;20032;-77
2023/03/25 06:28:19;;;;;;;11.48;2.60;;;9.60;99.90;;;;;;4774326;30;20042;-78
2023/03/25 06:30:45;;;;;;;11.98;2.45;;;9.60;99.90;;;;;;4788935;30;20039;-79
2023/03/25 06:33:12;;;;;;;12.77;2.40;;;9.60;99.90;;;;;;4790209;30;20043;-78
2023/03/25 06:35:39;;;;;;;12.07;2.40;;;9.60;99.90;;;;;;4789810;30;20487;-78
2023/03/25 06:38:05;;;;;;;15.40;3.03;;;9.60;99.90;;;;;;4789102;30;20031;-79
2023/03/25 06:40:31;;;;;;;10.50;3.00;;;9.50;99.90;;;;;;4759342;30;20041;-76
2023/03/25 06:42:56;;;;;;;15.57;2.97;;;9.50;99.90;;;;;;4774257;30;20126;-76
2023/03/25 06:45:22;;;;;;;15.48;3.15;;;9.60;99.90;;;;;;4773787;30;20042;-77
2023/03/25 06:47:47;;;;;;;13.10;3.05;;;9.60;99.90;;;;;;4773784;30;20084;-77
2023/03/25 06:50:13;;;;;;;15.00;2.67;;;9.60;99.90;;;;;;4789981;30;20111;-77
2023/03/25 06:52:39;;;;;;;12.57;3.15;;;9.60;99.90;;;;;;4773758;30;20365;-77
2023/03/25 06:55:05;;;;;;;10.73;2.15;;;9.60;99.90;;;;;;4773705;30;20039;-77
2023/03/25 06:57:30;;;;;;;11.70;2.90;;;9.60;99.90;;;;;;4789671;30;20110;-77
2023/03/25 06:59:56;;;;;;;11.85;2.35;;;9.60;99.90;;;;;;4788622;30;20032;-77
2023/03/25 07:02:22;;;;;;;10.85;2.00;;;9.70;99.90;;;;;;4757744;30;20039;-77
2023/03/25 07:04:48;;;;;;;17.35;2.35;;;9.70;99.90;;;;;;4758617;30;20088;-77
2023/03/25 07:07:14;;;;;;;14.32;2.35;;;9.70;99.90;;;;;;4773873;30;20040;-76
2023/03/25 07:09:39;;;;;;;17.15;2.25;;;9.70;99.90;;;;;;4774138;30;20164;-77
2023/03/25 07:12:05;;;;;;;12.02;2.33;;;9.70;99.90;;;;;;4789561;30;20126;-77
2023/03/25 07:14:31;;;;;;;14.10;3.13;;;9.70;99.90;;;;;;4773432;30;20122;-77
2023/03/25 07:16:57;;;;;;;13.07;2.38;;;9.70;99.90;;;;;;4789775;30;20488;-78
2023/03/25 07:19:22;;;;;;;14.20;2.95;;;9.80;99.90;;;;;;4773164;30;20397;-76
2023/03/25 07:21:48;;;;;;;17.48;2.60;;;9.80;99.90;;;;;;4789523;30;20032;-77
2023/03/25 07:24:14;;;;;;;13.48;2.33;;;9.90;99.90;;;;;;4773173;30;20441;-78
2023/03/25 07:26:39;;;;;;;17.70;2.25;;;9.90;99.90;;;;;;4757670;30;20571;-78
2023/03/25 07:29:06;;;;;;;19.50;2.85;;;9.90;99.90;;;;;;4773387;30;20092;-77
2023/03/25 07:31:31;;;;;;;22.17;3.15;;;9.90;99.90;;;;;;4787682;30;20092;-77
2023/03/25 07:33:58;;;;;;;18.13;2.05;;;9.90;99.90;;;;;;4772789;30;20506;-77
2023/03/25 07:36:25;;;;;;;10.57;2.28;;;9.90;99.90;;;;;;4773253;30;20038;-77
2023/03/25 07:38:52;;;;;;;12.30;2.45;;;9.80;99.90;;;;;;4772729;30;20063;-77
2023/03/25 07:41:17;;;;;;;16.30;2.70;;;9.80;99.90;;;;;;4773010;30;20502;-77
2023/03/25 07:43:44;;;;;;;17.13;2.95;;;9.80;99.90;;;;;;4773142;30;20119;-78
2023/03/25 07:46:10;;;;;;;16.58;2.72;;;9.70;99.90;;;;;;4757990;30;20040;-78
2023/03/25 07:48:36;;;;;;;17.58;2.58;;;9.70;99.90;;;;;;4772723;30;20038;-78
2023/03/25 07:51:01;;;;;;;18.90;2.88;;;9.70;99.90;;;;;;4772532;30;20126;-79
2023/03/25 07:53:27;;;;;;;14.98;2.65;;;9.70;99.90;;;;;;4772483;30;20047;-78
2023/03/25 07:55:54;;;;;;;16.45;2.97;;;9.70;99.90;;;;;;4757632;30;20084;-79
2023/03/25 07:58:20;;;;;;;21.00;2.95;;;9.70;99.90;;;;;;4772482;30;20473;-78
2023/03/25 08:00:46;;;;;;;20.63;2.90;;;9.70;99.90;;;;;;4787225;30;20084;-78
2023/03/25 08:03:12;;;;;;;20.52;2.72;;;9.70;99.90;;;;;;4787173;30;20070;-78
2023/03/25 08:05:44;;;;;;;15.40;2.47;;;9.70;99.90;;;;;;4788522;30;20076;-78
2023/03/25 08:08:09;;;;;;;18.40;2.78;;;9.70;99.90;;;;;;4788641;30;20031;-77
2023/03/25 08:10:35;;;;;;;14.88;2.63;;;9.80;99.90;;;;;;4757454;30;20084;-78
2023/03/25 08:13:01;;;;;;;17.67;3.10;;;9.80;99.90;;;;;;4772385;29;20054;-77
2023/03/25 08:15:26;;;;;;;12.77;2.22;;;9.80;99.90;;;;;;4771867;30;20508;-78
2023/03/25 08:17:52;;;;;;;17.95;2.30;;;9.70;99.90;;;;;;4772096;30;20107;-77
2023/03/25 08:20:18;;;;;;;16.67;2.70;;;9.70;99.90;;;;;;4772080;30;20039;-78
2023/03/25 08:22:44;;;;;;;18.13;3.30;;;9.70;99.90;;;;;;4787176;30;20046;-78
2023/03/25 08:25:10;;;;;;;18.15;2.88;;;9.70;99.90;;;;;;4772656;30;20036;-78
2023/03/25 08:27:36;;;;;;;13.55;2.35;;;9.60;99.90;;;;;;4772059;30;20134;-78
2023/03/25 08:30:03;;;;;;;17.60;2.47;;;9.60;99.90;;;;;;4771983;30;20465;-77
2023/03/25 08:32:30;;;;;;;22.15;3.38;;;9.60;99.90;;;;;;4786850;30;20039;-78
2023/03/25 08:34:56;;;;;;;17.50;2.22;;;9.70;99.90;;;;;;4786762;30;20050;-77
2023/03/25 08:37:22;;;;;;;17.65;2.42;;;9.80;99.90;;;;;;4757169;30;20035;-75
2023/03/25 08:39:49;;;;;;;19.25;2.80;;;9.80;99.90;;;;;;4769157;30;20052;-77
2023/03/25 08:42:15;;;;;;;11.13;1.40;;;9.90;99.90;;;;;;4769018;30;20085;-77
2023/03/25 08:44:41;;;;;;;19.60;3.22;;;9.90;99.90;;;;;;4783987;30;20123;-76
2023/03/25 08:47:07;;;;;;;17.90;2.10;;;9.90;99.90;;;;;;4783643;30;20123;-77
2023/03/25 08:49:33;;;;;;;15.07;2.28;;;10.00;99.90;;;;;;4784370;30;20369;-76
2023/03/25 08:52:00;;;;;;;17.60;2.95;;;10.00;99.90;;;;;;4768748;30;20481;-77
2023/03/25 08:54:26;;;;;;;11.13;2.60;;;10.10;99.90;;;;;;4783790;30;20109;-76
2023/03/25 08:56:52;;;;;;;15.55;2.10;;;10.20;99.90;;;;;;4783815;30;20458;-78
2023/03/25 08:59:19;;;;;;;12.90;2.42;;;10.30;99.90;;;;;;4783749;30;20138;-78
2023/03/25 09:01:45;;;;;;;15.13;2.17;;;10.30;99.90;;;;;;4784064;30;20036;-77
2023/03/25 09:04:11;;;;;;;18.38;2.72;;;10.40;99.90;;;;;;4770235;30;20553;-77
2023/03/25 09:06:38;;;;;;;18.35;2.53;;;10.40;99.90;;;;;;4784058;30;20117;-77
2023/03/25 09:09:06;;;;;;;19.50;2.35;;;10.40;99.90;;;;;;4784152;30;20090;-77
2023/03/25 09:11:32;;;;;;;16.83;3.13;;;10.40;99.90;;;;;;4783850;30;20462;-77
2023/03/25 09:14:01;;;;;;;17.80;2.95;;;10.40;99.90;;;;;;4769095;30;20036;-79
2023/03/25 09:16:27;;;;;;;23.40;3.13;;;10.30;99.90;;;;;;4770031;30;20031;-78
2023/03/25 09:18:52;;;;;;;15.10;1.90;;;10.20;99.90;;;;;;4753955;30;20036;-79
2023/03/25 09:21:18;;;;;;;16.67;2.00;;;10.20;99.90;;;;;;4768676;30;20036;-78
2023/03/25 09:23:44;;;;;;;21.75;2.90;;;10.20;99.90;;;;;;4770207;30;20032;-76
2023/03/25 09:26:10;;;;;;;20.20;2.67;;;10.20;99.90;;;;;;4772070;30;20389;-76
2023/03/25 09:28:35;;;;;;;18.65;2.30;;;10.20;99.90;;;;;;4773340;30;20051;-78
2023/03/25 09:31:01;;;;;;;15.57;2.40;;;10.30;99.90;;;;;;4757615;30;20043;-78
2023/03/25 09:33:27;;;;;;;16.48;2.25;;;10.30;99.90;;;;;;4757235;30;20040;-79
2023/03/25 09:35:53;;;;;;;22.17;3.72;;;10.30;99.90;;;;;;4772283;30;20097;-81
2023/03/25 09:38:19;;;;;;;26.95;4.35;;;10.20;99.90;;;;;;4771895;30;20565;-78
2023/03/25 09:40:45;;;;;;;23.02;3.13;;;10.20;99.90;;;;;;4772027;30;20367;-79
2023/03/25 09:43:29;;;;;;;18.83;2.75;;;10.20;99.90;;;;;;4787388;30;20036;-78
2023/03/25 09:45:55;;;;;;;22.88;3.03;;;10.20;99.90;;;;;;4773094;30;20048;-79
2023/03/25 09:48:44;;;;;;;19.27;2.80;;;10.20;99.90;;;;;;4771673;30;20470;-78
2023/03/25 09:51:14;;;;;;;23.65;3.60;;;10.30;99.90;;;;;;4786749;30;20478;-77
2023/03/25 09:53:54;;;;;;;20.25;2.97;;;10.30;99.90;;;;;;4773238;30;20189;-77
2023/03/25 09:56:24;;;;;;;21.58;3.00;;;10.40;99.90;;;;;;4787144;30;20067;-78
2023/03/25 09:59:10;;;;;;;19.33;3.22;;;10.30;99.90;;;;;;4787059;30;20040;-78
2023/03/25 10:02:02;;;;;;;19.48;2.40;;;10.30;99.90;;;;;;4773598;30;20036;-79
2023/03/25 10:04:46;;;;;;;19.10;2.85;;;10.30;99.90;;;;;;4773054;30;20043;-77
2023/03/25 10:07:12;;;;;;;14.88;2.67;;;10.40;99.90;;;;;;4772754;30;20104;-76
2023/03/25 10:09:54;;;;;;;23.90;2.95;;;10.60;99.90;;;;;;4771469;30;20040;-74
2023/03/25 10:12:23;;;;;;;22.60;3.95;;;10.80;99.90;;;;;;4786734;30;20040;-77
2023/03/25 10:15:11;;;;;;;17.65;2.88;;;11.10;99.90;;;;;;4771767;30;20393;-77
2023/03/25 10:18:03;;;;;;;25.05;3.25;;;11.20;99.90;;;;;;4772704;30;20118;-74
2023/03/25 10:20:40;;;;;;;26.60;3.15;;;11.30;99.90;;;;;;4771433;30;20130;-75
2023/03/25 10:23:33;;;;;;;27.75;3.13;;;11.50;99.90;;;;;;4772733;30;20066;-74
2023/03/25 10:26:09;;;;;;;27.00;3.60;;;11.60;99.90;;;;;;4772511;30;20074;-75
2023/03/25 10:28:46;;;;;;;17.85;2.70;;;11.60;99.90;;;;;;4786296;30;20121;-75
2023/03/25 10:31:20;;;;;;;19.05;2.55;;;11.60;99.90;;;;;;4785969;30;20105;-76
2023/03/25 10:33:55;;;;;;;27.05;3.30;;;11.60;99.90;;;;;;4785922;30;20081;-77
2023/03/25 10:36:31;;;;;;;20.52;3.00;;;11.50;99.90;;;;;;4772036;30;20039;-76
2023/03/25 10:39:00;;;;;;;23.70;2.92;;;11.40;99.90;;;;;;4785251;30;20142;-76
2023/03/25 10:41:36;;;;;;;17.85;2.15;;;11.40;99.90;;;;;;4770860;30;20040;-77
2023/03/25 10:44:09;;;;;;;29.35;2.88;;;11.30;99.90;;;;;;4772186;30;20504;-77
2023/03/25 10:46:46;;;;;;;;;;;11.20;99.90;;;;;;4786747;30;20126;-77
2023/03/25 10:49:18;;;;;;;25.50;3.30;;;11.20;99.90;;;;;;4785577;30;19929;-78
2023/03/25 10:51:45;;;;;;;27.88;3.88;;;11.10;99.90;;;;;;4786249;30;20040;-77
2023/03/25 10:54:13;;;;;;;25.35;3.83;;;11.10;99.90;;;;;;4785346;30;20036;-76
2023/03/25 10:56:44;;;;;;;26.63;2.72;;;11.00;99.90;;;;;;4770237;30;20050;-77
2023/03/25 10:59:33;;;;;;;25.58;4.22;;;10.90;99.90;;;;;;4785443;30;20051;-77
2023/03/25 11:02:03;;;;;;;21.17;2.75;;;10.90;99.90;;;;;;4771687;30;20035;-77
2023/03/25 11:04:36;;;;;;;26.60;3.95;;;10.90;99.90;;;;;;4770970;30;20038;-75
2023/03/25 11:07:04;;;;;;;;;;;10.90;99.90;;;;;;4772298;30;20059;-77
2023/03/25 11:09:33;;;;;;;34.75;4.28;;;10.90;99.90;;;;;;4785558;30;19913;-77
2023/03/25 11:12:00;;;;;;;25.50;3.20;;;10.90;99.90;;;;;;4771528;30;20040;-77
2023/03/25 11:14:28;;;;;;;22.67;3.15;;;10.90;99.90;;;;;;4785813;30;20074;-77
2023/03/25 11:17:01;;;;;;;18.02;2.58;;;10.90;99.90;;;;;;4785090;30;20071;-80
2023/03/25 11:19:35;;;;;;;19.70;2.80;;;10.90;99.90;;;;;;4770389;30;20130;-78
2023/03/25 11:22:09;;;;;;;21.08;2.28;;;11.00;99.90;;;;;;4786223;30;20040;-78
2023/03/25 11:24:44;;;;;;;24.13;3.40;;;10.90;99.90;;;;;;4785764;30;20035;-79
2023/03/25 11:27:18;;;;;;;25.50;3.05;;;10.90;99.90;;;;;;4785744;30;20540;-78
2023/03/25 11:29:54;;;;;;;22.08;2.33;;;10.90;99.90;;;;;;4784746;30;20048;-78
2023/03/25 11:32:34;;;;;;;23.63;2.80;;;10.90;99.90;;;;;;4785397;30;20036;-76
2023/03/25 11:35:06;;;;;;;24.65;2.70;;;10.80;99.90;;;;;;4771237;30;20038;-77
2023/03/25 11:37:42;;;;;;;23.65;2.78;;;10.80;99.90;;;;;;4771321;30;20044;-77
2023/03/25 11:40:15;;;;;;;21.30;2.90;;;10.80;99.90;;;;;;4788834;30;20060;-78
2023/03/25 11:42:42;;;;;;;;;;;10.80;99.90;;;;;;4788344;30;20381;-77
2023/03/25 11:45:32;;;;;;;13.68;1.70;;;10.80;99.90;;;;;;4772862;30;20296;-79
2023/03/25 11:48:20;;;;;;;13.90;1.65;;;11.00;99.90;;;;;;4788258;29;20090;-81
2023/03/25 11:50:57;;;;;;;13.13;1.75;;;11.00;99.90;;;;;;4787992;30;20100;-79
2023/03/25 11:53:25;;;;;;;19.25;2.20;;;11.10;99.90;;;;;;4787744;30;20039;-80
2023/03/25 11:55:58;;;;;;;16.15;1.80;;;11.30;99.90;;;;;;4788064;30;20461;-79
2023/03/25 11:58:30;;;;;;;13.55;1.20;;;11.40;99.90;;;;;;4787658;30;20118;-76
2023/03/25 12:01:05;;;;;;;14.93;1.77;;;11.50;99.90;;;;;;4787763;30;20035;-77
2023/03/25 12:03:33;;;;;;;14.75;2.00;;;11.50;99.90;;;;;;4787161;30;20031;-76
2023/03/25 12:06:18;;;;;;;13.13;1.95;;;11.60;99.90;;;;;;4772170;30;20046;-76
2023/03/25 12:08:55;;;;;;;12.20;1.80;;;11.60;99.90;;;;;;4788269;30;20541;-78
2023/03/25 12:11:30;;;;;;;17.33;2.03;;;11.60;99.90;;;;;;4787285;30;20039;-77
2023/03/25 12:14:28;;;;;;;18.10;2.28;;;11.70;99.90;;;;;;4788481;30;20039;-77
2023/03/25 12:17:04;;;;;;;18.52;2.22;;;11.80;99.90;;;;;;4772679;30;20058;-77
2023/03/25 12:19:30;;;;;;;17.77;3.05;;;11.90;99.90;;;;;;4772785;30;20035;-76
2023/03/25 12:22:11;;;;;;;11.98;1.83;;;11.90;99.90;;;;;;4772532;30;20106;-77
2023/03/25 12:25:08;;;;;;;16.77;2.20;;;12.00;99.90;;;;;;4787511;30;20427;-77
2023/03/25 12:27:34;;;;;;;16.23;1.65;;;11.90;99.90;;;;;;4787076;30;20118;-74
2023/03/25 12:30:18;;;;;;;14.57;2.38;;;12.00;99.90;;;;;;4771955;30;20177;-77
2023/03/25 12:33:02;;;;;;;15.13;1.75;;;12.20;99.90;;;;;;4787846;30;20540;-77
2023/03/25 12:35:56;;;;;;;10.75;1.45;;;12.20;99.90;;;;;;4786911;30;20122;-76
2023/03/25 12:38:53;;;;;;;13.63;2.05;;;12.10;99.90;;;;;;4783835;30;20093;-78
2023/03/25 12:41:37;;;;;;;14.60;1.75;;;12.10;99.90;;;;;;4769350;30;20542;-77
2023/03/25 12:44:31;;;;;;;14.88;1.88;;;12.10;99.90;;;;;;4769178;30;20062;-78
2023/03/25 12:47:12;;;;;;;10.93;1.15;;;12.10;99.90;;;;;;4784074;30;20035;-75
2023/03/25 12:50:15;;;;;;;12.05;1.73;;;12.00;99.90;;;;;;4769217;30;20125;-78
2023/03/25 12:52:58;;;;;;;10.23;1.20;;;11.80;99.90;;;;;;4768769;30;20050;-79
2023/03/25 12:55:39;;;;;;;7.57;1.10;;;11.50;99.90;;;;;;4783891;30;20494;-79
2023/03/25 12:58:38;;;;;;;8.80;1.55;;;11.30;99.90;;;;;;4770259;30;20039;-78
2023/03/25 13:01:16;;;;;;;7.82;0.80;;;11.00;99.90;;;;;;4773583;30;20092;-78
2023/03/25 13:03:59;;;;;;;7.65;0.60;;;10.80;99.90;;;;;;4789558;30;20059;-78
2023/03/25 13:06:31;;;;;;;10.18;1.08;;;10.60;99.90;;;;;;4789654;30;20032;-77